Time;durP1;ratioP1;P1;durP2;ratioP2;P2;SDS_P1;SDS_P2;PMS_P1;PMS_P2;Temp;Humidity;BMP_temperature;BMP_pressure;BME280_temperature;BME280_humidity;BME280_pressure;Samples;Min_cycle;Max_cycle;Signal;HPM_P1;HPM_P2
2021/09/29 00:00:36;;;;;;;3.58;1.48;;;;;;;22.06;49.34;101587.44;5032486;28;20127;-66
2021/09/29 00:03:05;;;;;;;3.67;1.45;;;;;;;22.05;49.08;101583.94;5032435;28;20030;-65
2021/09/29 00:05:31;;;;;;;3.17;1.25;;;;;;;22.03;49.15;101577.09;5033122;28;20021;-65
2021/09/29 00:07:56;;;;;;;3.78;1.27;;;;;;;22.03;49.35;101574.44;5032120;28;20029;-65
2021/09/29 00:10:21;;;;;;;2.72;1.30;;;;;;;22.03;49.31;101579.72;5032719;28;20041;-65
2021/09/29 00:12:47;;;;;;;3.75;1.30;;;;;;;22.01;49.02;101569.25;5032921;28;20025;-66
2021/09/29 00:15:14;;;;;;;3.33;1.30;;;;;;;22.01;49.26;101568.41;5031902;28;20036;-65
2021/09/29 00:17:45;;;;;;;3.33;1.42;;;;;;;21.99;49.07;101568.56;5032747;28;20469;-65
2021/09/29 00:20:12;;;;;;;3.13;1.30;;;;;;;21.97;49.33;101567.84;5032567;28;20037;-65
2021/09/29 00:22:39;;;;;;;3.83;1.63;;;;;;;21.96;49.16;101566.16;5031974;28;20021;-66
2021/09/29 00:25:06;;;;;;;3.00;1.30;;;;;;;21.95;49.18;101564.47;5032578;28;20079;-65
2021/09/29 00:27:36;;;;;;;3.22;1.52;;;;;;;21.95;49.21;101558.34;5032676;28;20038;-66
2021/09/29 00:30:06;;;;;;;2.42;1.35;;;;;;;21.95;49.28;101553.84;5031450;28;20021;-65
2021/09/29 00:32:33;;;;;;;4.18;1.40;;;;;;;21.95;49.30;101547.72;5032408;28;20401;-66
2021/09/29 00:34:59;;;;;;;3.30;1.40;;;;;;;21.92;49.03;101549.66;5031643;28;20060;-65
2021/09/29 00:37:24;;;;;;;3.60;1.60;;;;;;;21.91;49.17;101542.66;5031843;28;20029;-66
2021/09/29 00:39:49;;;;;;;2.07;1.10;;;;;;;21.92;48.86;101539.06;5032222;28;20126;-66
2021/09/29 00:42:14;;;;;;;3.17;1.37;;;;;;;21.91;49.16;101536.53;5031748;28;20665;-65
2021/09/29 00:44:40;;;;;;;3.38;1.48;;;;;;;21.89;49.27;101531.34;5032088;28;20285;-66
2021/09/29 00:47:05;;;;;;;3.00;1.33;;;;;;;21.88;49.12;101532.31;5032195;28;20030;-65
2021/09/29 00:49:33;;;;;;;3.65;1.55;;;;;;;21.88;49.27;101526.19;5031578;28;20077;-66
2021/09/29 00:51:59;;;;;;;3.53;1.35;;;;;;;21.87;49.33;101525.34;5031651;28;20504;-65
2021/09/29 00:54:28;;;;;;;3.70;1.80;;;;;;;21.87;49.17;101512.09;5032304;28;20040;-65
2021/09/29 00:56:55;;;;;;;3.83;1.50;;;;;;;21.86;48.92;101510.41;5031338;28;20026;-65
2021/09/29 00:59:21;;;;;;;2.55;1.20;;;;;;;21.86;49.17;101501.59;5032123;28;20116;-65
2021/09/29 01:01:46;;;;;;;3.33;1.42;;;;;;;21.85;49.07;101494.59;5032321;28;20072;-65
2021/09/29 01:04:12;;;;;;;4.28;1.70;;;;;;;21.83;48.92;101496.56;5031405;28;20492;-66
2021/09/29 01:06:45;;;;;;;2.42;1.20;;;;;;;21.83;49.08;101501.88;5031880;28;20484;-66
2021/09/29 01:09:17;;;;;;;3.30;1.50;;;;;;;21.84;48.95;101492.91;5031756;28;20389;-64
2021/09/29 01:11:56;;;;;;;4.75;1.63;;;;;;;21.84;49.02;101487.63;5031464;28;20466;-66
2021/09/29 01:14:31;;;;;;;2.95;1.48;;;;;;;21.84;49.01;101483.16;5032199;28;20037;-66
2021/09/29 01:16:59;;;;;;;3.17;1.30;;;;;;;21.83;48.76;101483.31;5031960;28;20041;-65
2021/09/29 01:20:03;;;;;;;3.30;1.40;;;;;;;21.82;48.99;101474.47;5031183;28;20572;-65
2021/09/29 01:22:53;;;;;;;2.78;1.40;;;;;;;21.82;48.96;101468.34;5028852;28;20096;-64
2021/09/29 01:25:43;;;;;;;3.80;1.48;;;;;;;21.80;48.78;101465.81;5031420;28;20121;-65
2021/09/29 01:28:09;;;;;;;4.28;1.33;;;;;;;21.79;48.88;101453.53;5031722;28;20120;-65
2021/09/29 01:30:39;;;;;;;3.33;1.40;;;;;;;21.78;48.96;101459.81;5032022;28;20112;-65
2021/09/29 01:33:06;;;;;;;4.55;1.30;;;;;;;21.78;48.85;101454.50;5031053;28;20108;-65
2021/09/29 01:35:32;;;;;;;3.50;1.58;;;;;;;21.76;48.84;101453.78;5031995;28;20413;-65
2021/09/29 01:37:58;;;;;;;3.53;1.45;;;;;;;21.75;49.00;101446.81;5031487;28;20022;-65
2021/09/29 01:40:25;;;;;;;3.63;1.48;;;;;;;21.75;49.07;101449.47;5031032;28;20079;-65
2021/09/29 01:42:51;;;;;;;2.85;1.20;;;;;;;21.77;48.81;101444.88;5031405;28;20489;-66
2021/09/29 01:45:16;;;;;;;3.30;1.20;;;;;;;21.76;48.94;101443.19;5031881;28;20052;-65
2021/09/29 01:47:41;;;;;;;3.00;1.40;;;;;;;21.76;48.90;101445.00;5031099;28;20804;-65
2021/09/29 01:50:09;;;;;;;3.25;1.40;;;;;;;21.75;48.95;101438.88;5033498;28;20072;-66
2021/09/29 01:52:38;;;;;;;4.10;1.63;;;;;;;21.74;48.82;101435.34;5034902;28;20040;-65
2021/09/29 01:55:07;;;;;;;3.65;1.40;;;;;;;21.73;48.82;101425.72;5034825;28;20071;-65
2021/09/29 01:57:36;;;;;;;3.20;1.40;;;;;;;21.74;48.71;101426.56;5035595;28;20021;-65
2021/09/29 02:00:02;;;;;;;3.22;1.58;;;;;;;21.73;48.81;101419.59;5034726;28;20022;-65
2021/09/29 02:02:27;;;;;;;2.40;1.20;;;;;;;21.71;48.90;101411.78;5035094;28;20457;-65
2021/09/29 02:04:53;;;;;;;3.28;1.38;;;;;;;21.69;48.97;101408.41;5035011;28;20037;-66
2021/09/29 02:07:18;;;;;;;3.33;1.45;;;;;;;21.68;48.88;101404.09;5034769;28;20033;-65
2021/09/29 02:09:43;;;;;;;3.33;1.40;;;;;;;21.68;49.14;101406.72;5035013;28;20022;-66
2021/09/29 02:12:09;;;;;;;3.50;1.33;;;;;;;21.69;48.90;101400.44;5034896;28;20029;-66
2021/09/29 02:14:35;;;;;;;3.00;1.25;;;;;;;21.68;49.01;101401.44;5034588;28;20093;-66
2021/09/29 02:17:00;;;;;;;2.20;1.20;;;;;;;21.68;48.87;101390.81;5035009;28;20033;-66
2021/09/29 02:19:26;;;;;;;3.47;1.33;;;;;;;21.69;48.98;101389.00;5035155;28;20024;-65
2021/09/29 02:21:54;;;;;;;3.15;1.40;;;;;;;21.67;48.71;101383.00;5033981;28;20496;-65
2021/09/29 02:24:20;;;;;;;3.90;1.23;;;;;;;21.68;48.78;101382.88;5034900;28;20029;-65
2021/09/29 02:26:51;;;;;;;3.17;1.33;;;;;;;21.66;48.80;101382.13;5034828;28;20407;-67
2021/09/29 02:29:19;;;;;;;4.32;1.42;;;;;;;21.67;48.87;101375.88;5034085;28;20469;-65
2021/09/29 02:31:45;;;;;;;3.55;1.20;;;;;;;21.67;48.81;101377.69;5034770;28;20108;-66
2021/09/29 02:34:11;;;;;;;3.40;1.30;;;;;;;21.65;48.81;101372.53;5035654;28;20045;-64
2021/09/29 02:36:36;;;;;;;2.90;1.25;;;;;;;21.65;48.76;101371.66;5034490;28;20473;-65
2021/09/29 02:39:06;;;;;;;3.15;1.35;;;;;;;21.63;48.91;101365.66;5035428;28;20025;-66
2021/09/29 02:41:32;;;;;;;2.90;1.20;;;;;;;21.64;48.86;101354.91;5036035;28;20093;-66
2021/09/29 02:43:57;;;;;;;3.30;1.23;;;;;;;21.66;49.00;101360.91;5035301;28;20060;-66
2021/09/29 02:46:22;;;;;;;2.90;1.27;;;;;;;21.65;48.74;101350.44;5037177;28;20028;-65
2021/09/29 02:48:48;;;;;;;2.83;1.20;;;;;;;21.63;48.88;101358.53;5036259;28;20055;-65
2021/09/29 02:51:13;;;;;;;2.75;1.20;;;;;;;21.65;48.97;101361.03;5034109;28;20060;-65
2021/09/29 02:53:38;;;;;;;2.88;1.27;;;;;;;21.63;48.91;101347.91;5034264;28;20025;-64
2021/09/29 02:56:04;;;;;;;3.25;1.38;;;;;;;21.63;48.89;101349.75;5033545;28;20334;-65
2021/09/29 02:58:30;;;;;;;3.40;1.25;;;;;;;21.62;48.95;101346.25;5034293;28;20034;-66
2021/09/29 03:00:59;;;;;;;3.53;1.40;;;;;;;21.62;49.19;101340.09;5033510;28;20024;-65
2021/09/29 03:03:25;;;;;;;3.28;1.40;;;;;;;21.64;48.88;101344.31;5033652;28;20025;-65
2021/09/29 03:05:52;;;;;;;4.22;1.10;;;;;;;21.63;48.79;101334.66;5033594;28;20033;-66
2021/09/29 03:08:18;;;;;;;2.67;1.20;;;;;;;21.63;48.90;101339.13;5034057;28;20354;-65
2021/09/29 03:10:43;;;;;;;3.83;1.20;;;;;;;21.62;48.72;101338.31;5033459;28;20028;-65
2021/09/29 03:13:09;;;;;;;3.05;1.50;;;;;;;21.61;48.82;101326.00;5033984;28;20394;-65
2021/09/29 03:15:35;;;;;;;2.30;1.10;;;;;;;21.59;48.88;101327.97;5033958;28;20422;-65
2021/09/29 03:18:01;;;;;;;2.40;0.98;;;;;;;21.58;48.81;101315.66;5033030;28;20027;-65
2021/09/29 03:20:27;;;;;;;2.67;1.20;;;;;;;21.59;48.94;101324.47;5033778;28;20474;-65
2021/09/29 03:22:53;;;;;;;3.10;1.35;;;;;;;21.58;49.01;101318.31;5033489;28;20100;-66
2021/09/29 03:25:19;;;;;;;3.03;1.20;;;;;;;21.58;48.98;101325.44;5033249;28;20034;-65
2021/09/29 03:27:44;;;;;;;3.13;1.40;;;;;;;21.58;49.17;101323.63;5033718;28;20049;-65
2021/09/29 03:30:11;;;;;;;2.77;1.10;;;;;;;21.58;48.86;101315.66;5033618;28;20049;-66
2021/09/29 03:32:36;;;;;;;2.78;1.10;;;;;;;21.59;48.87;101314.72;5032803;28;20678;-65
2021/09/29 03:35:02;;;;;;;2.30;1.25;;;;;;;21.59;48.66;101316.50;5033266;28;20041;-65
2021/09/29 03:37:27;;;;;;;2.45;1.30;;;;;;;21.58;48.83;101313.03;5033680;28;20465;-66
2021/09/29 03:39:52;;;;;;;2.40;1.05;;;;;;;21.59;48.90;101309.41;5032596;28;20076;-64
2021/09/29 03:42:18;;;;;;;2.80;1.23;;;;;;;21.58;48.70;101313.03;5033650;28;20060;-65
2021/09/29 03:44:43;;;;;;;3.97;1.20;;;;;;;21.58;48.85;101301.59;5033430;28;20021;-65
2021/09/29 03:47:08;;;;;;;2.70;1.20;;;;;;;21.57;48.71;101308.72;5032344;28;20522;-65
2021/09/29 03:49:33;;;;;;;2.50;1.20;;;;;;;21.55;48.83;101303.53;5032944;28;20042;-65
2021/09/29 03:51:59;;;;;;;3.35;1.20;;;;;;;21.55;48.80;101302.69;5032687;28;20033;-65
2021/09/29 03:54:24;;;;;;;1.92;1.00;;;;;;;21.55;48.82;101303.53;5033227;28;20055;-65
2021/09/29 03:56:49;;;;;;;2.97;1.23;;;;;;;21.55;48.77;101294.72;5032785;28;20067;-65
2021/09/29 03:59:15;;;;;;;2.27;1.00;;;;;;;21.55;48.66;101294.72;5032667;28;20297;-65
2021/09/29 04:01:42;;;;;;;2.83;1.07;;;;;;;21.56;49.06;101293.75;5032788;28;20738;-65
2021/09/29 04:04:08;;;;;;;3.03;1.30;;;;;;;21.56;48.81;101299.91;5032032;28;20290;-66
2021/09/29 04:06:33;;;;;;;2.40;1.15;;;;;;;21.55;48.93;101292.06;5032702;28;20389;-65
2021/09/29 04:08:59;;;;;;;2.63;1.40;;;;;;;21.54;48.91;101290.41;5032066;28;20025;-66
2021/09/29 04:11:25;;;;;;;3.10;1.20;;;;;;;21.53;48.93;101294.03;5031812;28;20429;-66
2021/09/29 04:13:50;;;;;;;3.50;1.20;;;;;;;21.52;48.90;101295.84;5031187;28;20097;-65
2021/09/29 04:16:15;;;;;;;3.20;1.30;;;;;;;21.53;48.95;101302.00;5032326;28;20167;-66
2021/09/29 04:18:41;;;;;;;2.65;1.15;;;;;;;21.52;48.98;101295.84;5032219;28;20022;-65
2021/09/29 04:21:06;;;;;;;2.87;1.10;;;;;;;21.52;48.97;101295.84;5031457;28;20494;-66
2021/09/29 04:23:33;;;;;;;2.50;1.10;;;;;;;21.53;49.00;101288.72;5032554;28;20286;-65
2021/09/29 04:25:58;;;;;;;2.60;1.10;;;;;;;21.54;48.94;101290.41;5032523;28;20685;-66
2021/09/29 04:28:24;;;;;;;2.65;1.10;;;;;;;21.53;48.94;101286.06;5032092;28;20057;-65
2021/09/29 04:30:50;;;;;;;3.15;1.08;;;;;;;21.54;48.90;101287.78;5032289;28;20492;-65
2021/09/29 04:33:15;;;;;;;3.67;1.20;;;;;;;21.52;48.96;101287.03;5032600;28;20025;-66
2021/09/29 04:35:41;;;;;;;3.40;1.30;;;;;;;21.53;49.01;101294.03;5031866;28;20112;-65
2021/09/29 04:38:09;;;;;;;3.10;1.40;;;;;;;21.52;49.11;101287.91;5032156;28;20018;-66
2021/09/29 04:40:35;;;;;;;2.25;0.98;;;;;;;21.52;48.89;101287.03;5032654;28;20022;-66
2021/09/29 04:43:00;;;;;;;2.15;1.08;;;;;;;21.52;49.10;101273.78;5031465;28;20079;-65
2021/09/29 04:45:25;;;;;;;3.60;1.17;;;;;;;21.50;49.02;101271.25;5032399;28;20501;-65
2021/09/29 04:47:50;;;;;;;2.03;1.00;;;;;;;21.49;49.09;101280.22;5032076;28;20040;-65
2021/09/29 04:50:19;;;;;;;3.27;1.20;;;;;;;21.48;49.08;101272.38;5031415;28;20048;-65
2021/09/29 04:52:44;;;;;;;2.60;1.20;;;;;;;21.50;49.18;101265.13;5032146;28;20309;-64
2021/09/29 04:55:10;;;;;;;1.95;0.90;;;;;;;21.49;49.31;101266.97;5031930;28;20025;-65
2021/09/29 04:57:53;;;;;;;2.38;1.10;;;;;;;21.50;49.31;101265.13;5031572;28;20025;-65
2021/09/29 05:00:19;;;;;;;3.47;1.30;;;;;;;21.50;49.15;101265.97;5032459;28;20033;-65
2021/09/29 05:02:47;;;;;;;2.60;1.13;;;;;;;21.49;49.36;101266.97;5031570;28;20033;-65
2021/09/29 05:05:12;;;;;;;2.78;1.20;;;;;;;21.49;49.30;101266.09;5031918;28;20385;-65
2021/09/29 05:07:45;;;;;;;2.10;1.07;;;;;;;21.46;49.31;101259.25;5032238;28;20023;-65
2021/09/29 05:10:15;;;;;;;2.63;1.10;;;;;;;21.47;49.33;101260.06;5031125;28;20366;-65
2021/09/29 05:12:50;;;;;;;2.63;1.10;;;;;;;21.48;49.24;101253.81;5032097;28;20021;-64
2021/09/29 05:15:22;;;;;;;3.13;1.33;;;;;;;21.48;49.24;101254.66;5032156;28;20105;-66
2021/09/29 05:17:56;;;;;;;2.92;1.13;;;;;;;21.47;49.40;101258.25;5031310;28;20030;-65
2021/09/29 05:20:22;;;;;;;3.42;1.10;;;;;;;21.50;49.20;101251.88;5032519;28;20021;-66
2021/09/29 05:22:47;;;;;;;2.13;1.02;;;;;;;21.48;49.35;101248.50;5032177;28;20095;-64
2021/09/29 05:25:12;;;;;;;1.60;0.90;;;;;;;21.47;49.52;101244.16;5035201;28;20029;-64
2021/09/29 05:27:37;;;;;;;2.17;1.00;;;;;;;21.48;49.21;101256.47;5035968;28;20025;-65
2021/09/29 05:30:04;;;;;;;2.85;1.10;;;;;;;21.47;49.37;101244.16;5035745;28;20681;-64
2021/09/29 05:32:29;;;;;;;2.58;1.17;;;;;;;21.47;49.53;101242.34;5035158;28;20041;-65
2021/09/29 05:35:00;;;;;;;3.15;1.17;;;;;;;21.47;49.42;101249.47;5035503;28;20071;-64
2021/09/29 05:37:26;;;;;;;2.38;0.98;;;;;;;21.48;49.37;101252.00;5035311;28;20018;-65
2021/09/29 05:39:51;;;;;;;2.50;1.10;;;;;;;21.50;49.24;101247.41;5035336;28;20528;-65
2021/09/29 05:42:16;;;;;;;2.90;0.95;;;;;;;21.48;49.52;101245.84;5035631;28;20033;-65
2021/09/29 05:44:41;;;;;;;2.17;1.10;;;;;;;21.48;49.47;101256.47;5035380;28;20033;-65
2021/09/29 05:47:09;;;;;;;3.63;1.47;;;;;;;21.47;49.61;101246.81;5035199;28;20287;-65
2021/09/29 05:49:34;;;;;;;2.67;1.10;;;;;;;21.47;49.55;101252.13;5035290;28;20769;-65
2021/09/29 05:51:59;;;;;;;2.07;1.00;;;;;;;21.47;49.51;101254.78;5034443;28;20025;-65
2021/09/29 05:54:24;;;;;;;3.27;1.17;;;;;;;21.46;49.55;101251.28;5035478;28;20801;-65
2021/09/29 05:56:50;;;;;;;2.43;1.13;;;;;;;21.47;49.51;101252.13;5034908;28;20638;-65
2021/09/29 05:59:15;;;;;;;2.97;1.00;;;;;;;21.47;49.46;101252.94;5034795;28;20262;-64
2021/09/29 06:01:40;;;;;;;3.87;1.20;;;;;;;21.46;49.68;101245.97;5035569;28;20462;-65
2021/09/29 06:04:06;;;;;;;3.45;1.30;;;;;;;21.45;49.43;101243.47;5035025;28;20290;-65
2021/09/29 06:06:31;;;;;;;2.55;1.08;;;;;;;21.45;49.50;101243.47;5034572;28;20119;-65
2021/09/29 06:08:56;;;;;;;2.38;1.00;;;;;;;21.45;49.76;101246.13;5034950;28;20095;-66
2021/09/29 06:11:25;;;;;;;2.47;0.90;;;;;;;21.45;49.83;101241.66;5034876;28;20030;-64
2021/09/29 06:13:50;;;;;;;2.00;1.10;;;;;;;21.43;50.27;101243.59;5034264;28;20167;-64
2021/09/29 06:16:17;;;;;;;4.40;1.30;;;;;;;21.41;50.42;101244.72;5035113;28;20116;-65
2021/09/29 06:18:42;;;;;;;2.42;1.10;;;;;;;21.38;50.37;101238.72;5035003;28;20038;-63
2021/09/29 06:21:09;;;;;;;2.90;1.00;;;;;;;21.41;50.78;101247.34;5034041;28;20108;-65
2021/09/29 06:23:35;;;;;;;2.45;1.02;;;;;;;21.42;50.70;101247.22;5034800;28;20036;-66
2021/09/29 06:26:02;;;;;;;2.65;1.20;;;;;;;21.42;50.76;101238.44;5034712;28;20461;-65
2021/09/29 06:28:32;;;;;;;3.45;1.20;;;;;;;21.40;50.71;101241.22;5034491;28;20026;-65
2021/09/29 06:30:58;;;;;;;2.80;1.13;;;;;;;21.39;50.90;101234.25;5034734;28;20034;-65
2021/09/29 06:33:23;;;;;;;2.25;1.00;;;;;;;21.40;50.86;101241.22;5035223;28;20123;-66
2021/09/29 06:35:48;;;;;;;3.90;1.27;;;;;;;21.38;51.08;101233.41;5033039;28;20022;-64
2021/09/29 06:38:14;;;;;;;3.03;1.15;;;;;;;21.39;50.99;101234.25;5034788;28;20025;-64
2021/09/29 06:40:40;;;;;;;2.92;1.20;;;;;;;21.38;51.05;101238.72;5034718;28;20091;-68
2021/09/29 06:43:05;;;;;;;2.67;1.10;;;;;;;21.41;51.20;101237.56;5033670;28;20021;-68
2021/09/29 06:45:34;;;;;;;2.70;0.98;;;;;;;21.43;51.06;101232.13;5034916;28;20029;-69
2021/09/29 06:47:59;;;;;;;2.42;0.88;;;;;;;21.43;51.15;101235.66;5033459;28;20405;-67
2021/09/29 06:50:25;;;;;;;2.03;0.93;;;;;;;21.44;51.31;101236.47;5034140;28;20493;-67
2021/09/29 06:52:50;;;;;;;3.00;1.00;;;;;;;21.42;51.33;101233.97;5034043;28;20344;-67
2021/09/29 06:55:15;;;;;;;2.95;1.17;;;;;;;21.42;51.36;101241.09;5033796;28;20037;-67
2021/09/29 06:57:41;;;;;;;2.55;1.00;;;;;;;21.42;51.56;101244.56;5034657;28;20440;-67
2021/09/29 07:00:09;;;;;;;3.22;1.00;;;;;;;21.40;51.77;101241.22;5034212;28;20025;-68
2021/09/29 07:02:40;;;;;;;3.55;1.27;;;;;;;21.42;51.51;101246.38;5033897;28;20045;-67
2021/09/29 07:05:05;;;;;;;4.00;1.20;;;;;;;21.42;51.56;101235.78;5033946;28;20037;-71
2021/09/29 07:07:34;;;;;;;2.28;0.90;;;;;;;21.43;51.93;101240.09;5034073;28;20124;-75
2021/09/29 07:10:00;;;;;;;3.08;0.90;;;;;;;21.46;51.89;101242.47;5033245;28;20045;-71
2021/09/29 07:12:25;;;;;;;2.05;0.90;;;;;;;21.47;51.73;101246.81;5034126;28;20044;-71
2021/09/29 07:14:52;;;;;;;2.78;1.00;;;;;;;21.50;51.84;101246.56;5033888;28;20021;-75
2021/09/29 07:17:17;;;;;;;3.65;1.10;;;;;;;21.48;51.99;101241.41;5033406;28;20034;-73
2021/09/29 07:19:47;;;;;;;2.17;0.83;;;;;;;21.48;52.15;101240.53;5025371;28;20025;-72
2021/09/29 07:22:12;;;;;;;3.00;1.10;;;;;;;21.51;52.11;101242.97;5025313;28;20278;-77
2021/09/29 07:24:38;;;;;;;3.83;1.17;;;;;;;21.53;52.02;101244.47;5031938;28;20032;-78
2021/09/29 07:27:03;;;;;;;5.93;1.20;;;;;;;21.58;51.94;101246.72;5032332;28;20279;-75
2021/09/29 07:29:32;;;;;;;3.97;1.08;;;;;;;21.65;51.98;101249.66;5030911;28;20127;-78
2021/09/29 07:31:57;;;;;;;3.13;1.02;;;;;;;21.70;51.64;101245.63;5030488;28;20053;-70
2021/09/29 07:34:23;;;;;;;3.80;1.70;;;;;;;21.74;51.50;101252.31;5032006;28;20047;-71
2021/09/29 07:36:49;;;;;;;5.18;1.10;;;;;;;21.79;51.43;101248.41;5030229;28;20663;-74
2021/09/29 07:39:15;;;;;;;3.60;1.10;;;;;;;21.84;51.01;101251.47;5022220;28;20251;-72
2021/09/29 07:41:40;;;;;;;4.37;1.17;;;;;;;21.87;51.33;101261.81;4143758;28;10000828;-73
2021/09/29 07:44:06;;;;;;;2.57;1.00;;;;;;;21.90;51.04;101264.19;4986200;28;20280;-67
2021/09/29 07:46:32;;;;;;;3.70;1.10;;;;;;;21.92;51.16;101272.84;4964976;28;20493;-68
2021/09/29 07:48:57;;;;;;;2.78;0.98;;;;;;;21.96;51.09;101270.78;4964620;28;20047;-68
2021/09/29 07:51:23;;;;;;;2.33;0.80;;;;;;;21.96;51.02;101281.38;4964174;28;20039;-66
2021/09/29 07:53:48;;;;;;;2.75;1.27;;;;;;;21.99;50.90;101289.06;4965115;28;20058;-69
2021/09/29 07:56:17;;;;;;;4.10;1.20;;;;;;;22.02;51.04;101288.78;3245874;28;10000794;-68
2021/09/29 07:58:42;;;;;;;4.75;1.10;;;;;;;22.01;50.99;101273.84;5000443;28;20136;-68
2021/09/29 08:01:08;;;;;;;3.57;0.90;;;;;;;22.03;50.62;101275.38;4116250;28;10000522;-69
2021/09/29 08:03:37;;;;;;;2.40;0.90;;;;;;;22.02;50.87;101280.81;4986274;28;20043;-68
2021/09/29 08:06:04;;;;;;;2.50;1.05;;;;;;;22.04;50.55;101292.13;4122030;28;10000320;-66
2021/09/29 08:08:30;;;;;;;3.38;1.10;;;;;;;22.05;50.67;101299.13;4985193;28;20041;-68
2021/09/29 08:10:55;;;;;;;2.65;0.95;;;;;;;22.06;50.74;101306.09;4983767;28;20034;-68
2021/09/29 08:13:20;;;;;;;2.15;0.73;;;;;;;22.08;51.00;101314.78;4116892;28;10000603;-67
2021/09/29 08:15:46;;;;;;;3.33;1.00;;;;;;;22.10;50.59;101304.84;4969252;28;20054;-70
2021/09/29 08:18:11;;;;;;;2.57;0.87;;;;;;;22.09;50.48;101314.59;4964062;28;20042;-69
2021/09/29 08:20:37;;;;;;;2.38;0.90;;;;;;;22.08;50.46;101312.13;4964044;28;20362;-68
2021/09/29 08:23:08;;;;;;;3.78;1.10;;;;;;;22.05;50.42;101307.91;4967039;28;20031;-68
2021/09/29 08:26:38;;;;;;;2.13;0.80;;;;;;;22.05;50.55;101321.19;4961180;28;20031;-68
2021/09/29 08:31:37;;;;;;;3.15;0.90;;;;;;;22.05;50.68;101333.63;4976631;28;20065;-68
2021/09/29 08:34:15;;;;;;;2.28;1.00;;;;;;;22.05;50.64;101328.31;4969048;28;20078;-68
2021/09/29 08:39:16;;;;;;;2.65;1.00;;;;;;;22.04;50.45;101326.63;4471184;28;10001105;-67
2021/09/29 08:42:00;;;;;;;2.22;0.90;;;;;;;22.05;50.57;101330.97;4981638;28;20038;-66
2021/09/29 08:44:30;;;;;;;3.50;0.98;;;;;;;22.05;50.63;101317.72;4984727;28;20058;-67
2021/09/29 08:49:31;;;;;;;3.35;1.00;;;;;;;22.08;50.34;101333.34;4980264;28;20050;-66
2021/09/29 08:52:11;;;;;;;2.67;0.88;;;;;;;22.09;50.47;101335.00;4979415;28;20159;-66
2021/09/29 08:55:09;;;;;;;3.13;0.80;;;;;;;22.07;50.50;101343.13;4978880;28;20034;-70
2021/09/29 09:16:36;;;;;;;2.95;0.70;;;;;;;21.94;50.28;101369.09;4979169;28;20108;-65
2021/09/29 09:19:10;;;;;;;2.88;0.90;;;;;;;21.93;50.54;101378.84;4979601;28;20489;-64
2021/09/29 09:21:55;;;;;;;2.40;0.82;;;;;;;21.95;50.45;101381.38;4979766;28;20053;-64
2021/09/29 09:24:26;;;;;;;5.20;1.45;;;;;;;21.97;50.50;101382.09;4978379;28;20430;-64
2021/09/29 09:27:03;;;;;;;3.42;0.77;;;;;;;21.98;50.49;101389.06;4978514;28;20284;-64
2021/09/29 09:29:29;;;;;;;3.42;1.08;;;;;;;;;;4978957;28;20546;-64
2021/09/29 09:32:15;;;;;;;1.63;0.60;;;;;;;21.85;50.30;101367.25;4977904;28;20038;-63
2021/09/29 09:34:40;;;;;;;2.38;0.90;;;;;;;21.92;50.30;101389.59;4979886;28;20486;-63
2021/09/29 09:37:16;;;;;;;2.00;0.80;;;;;;;21.91;50.58;101390.59;4982238;28;20032;-63
2021/09/29 09:39:42;;;;;;;3.58;1.30;;;;;;;21.89;50.22;101390.72;4978781;28;20033;-65
2021/09/29 09:42:10;;;;;;;2.95;0.80;;;;;;;21.89;50.11;101381.94;4976118;28;20026;-65
2021/09/29 09:44:40;;;;;;;3.28;0.80;;;;;;;21.86;50.28;101398.13;4978758;28;20036;-65
2021/09/29 09:47:08;;;;;;;2.15;0.70;;;;;;;21.85;50.33;101399.09;4976044;28;20117;-65
2021/09/29 09:49:52;;;;;;;2.70;0.80;;;;;;;21.86;50.42;101406.09;4978837;28;20103;-65
2021/09/29 09:52:36;;;;;;;3.67;0.98;;;;;;;21.87;50.17;101407.75;4978221;28;20050;-65
2021/09/29 09:55:11;;;;;;;1.98;0.70;;;;;;;21.87;50.28;101405.94;4978516;28;20564;-65
2021/09/29 09:57:39;;;;;;;2.88;0.90;;;;;;;21.87;50.38;101408.59;4976875;28;20026;-64
2021/09/29 10:00:11;;;;;;;3.13;0.70;;;;;;;21.89;50.48;101419.09;4963917;28;20041;-64
2021/09/29 10:02:48;;;;;;;3.25;0.80;;;;;;;21.87;50.45;101421.00;4976867;28;20084;-62
2021/09/29 10:05:15;;;;;;;3.38;0.70;;;;;;;21.87;50.30;101424.53;4976455;28;20491;-66
2021/09/29 10:07:41;;;;;;;1.45;0.70;;;;;;;21.86;50.53;101422.84;4966914;28;20606;-66
2021/09/29 10:10:16;;;;;;;2.80;0.70;;;;;;;21.87;50.59;101421.00;4967323;28;20511;-65
2021/09/29 10:13:33;;;;;;;2.35;1.00;;;;;;;21.89;50.47;101413.78;4969701;28;20085;-64
2021/09/29 10:26:25;;;;;;;1.88;0.85;;;;;;;21.90;50.31;101396.88;4982710;28;20027;-66
2021/09/29 10:29:03;;;;;;;2.70;0.85;;;;;;;21.88;50.36;101401.47;4985060;28;20126;-69
2021/09/29 10:34:11;;;;;;;2.78;0.80;;;;;;;21.81;50.63;101424.19;4981048;28;20027;-67
2021/09/29 10:37:50;;;;;;;2.83;0.80;;;;;;;21.80;50.80;101439.28;4982107;28;20318;-69
2021/09/29 11:10:29;;;;;;;2.67;0.90;;;;;;;21.78;50.94;101435.94;4987785;28;20320;-66
2021/09/29 11:28:53;;;;;;;1.25;0.70;;;;;;;21.87;49.72;101520.03;4993491;28;20134;-66
2021/09/29 11:31:26;;;;;;;2.03;0.70;;;;;;;21.81;49.92;101517.06;4993073;28;20117;-69
2021/09/29 11:34:11;;;;;;;1.52;0.70;;;;;;;21.78;49.68;101518.19;4993347;28;20030;-69
2021/09/29 11:36:54;;;;;;;;;;;;;;;21.72;49.90;101514.22;4992799;28;20089;-70
2021/09/29 12:07:59;;;;;;;1.35;0.60;;;;;;;21.76;50.07;101543.97;4985299;28;20364;-67
2021/09/29 12:10:26;;;;;;;2.03;0.70;;;;;;;21.71;50.23;101531.16;4992416;28;20496;-67
2021/09/29 12:12:53;;;;;;;1.55;0.65;;;;;;;21.69;49.94;101543.69;4991141;28;20553;-72
2021/09/29 12:15:18;;;;;;;1.85;0.73;;;;;;;21.73;50.22;101553.06;4992595;28;20058;-67
2021/09/29 12:17:50;;;;;;;3.65;0.77;;;;;;;21.75;50.11;101560.91;4991327;28;20061;-66
2021/09/29 12:20:19;;;;;;;2.90;0.80;;;;;;;21.76;49.95;101554.59;4987271;28;20089;-69
2021/09/29 12:22:51;;;;;;;3.13;0.82;;;;;;;21.79;50.09;101564.13;4987817;28;20493;-69
2021/09/29 12:25:41;;;;;;;3.28;0.80;;;;;;;21.80;50.29;101565.81;4992768;28;20041;-67
2021/09/29 12:28:17;;;;;;;2.47;0.93;;;;;;;21.84;50.07;101567.22;4986357;28;20351;-68
2021/09/29 12:30:48;;;;;;;2.90;1.05;;;;;;;21.85;49.91;101560.94;4983528;28;20035;-68
2021/09/29 12:33:44;;;;;;;1.65;0.60;;;;;;;21.86;49.88;101576.72;4983285;28;20186;-68
2021/09/29 12:36:09;;;;;;;2.47;0.80;;;;;;;21.88;49.88;101573.94;4983677;28;20049;-67
2021/09/29 12:38:37;;;;;;;1.20;0.68;;;;;;;21.90;49.93;101572.00;4989024;28;20038;-68
2021/09/29 12:41:03;;;;;;;1.67;0.70;;;;;;;21.95;49.92;101568.94;4990818;28;20034;-68
2021/09/29 12:43:29;;;;;;;2.03;0.73;;;;;;;22.02;50.01;101575.41;4990976;28;20405;-66
2021/09/29 12:45:54;;;;;;;1.85;0.80;;;;;;;22.09;49.69;101584.50;4990694;28;20041;-70
2021/09/29 12:48:24;;;;;;;2.40;0.77;;;;;;;22.15;49.58;101591.94;4991082;28;20026;-69
2021/09/29 12:50:54;;;;;;;1.38;0.55;;;;;;;22.16;49.56;101606.91;4991157;28;20050;-67
2021/09/29 12:53:33;;;;;;;2.85;0.80;;;;;;;22.17;49.36;101611.22;4991518;28;20042;-68
2021/09/29 12:56:03;;;;;;;2.78;0.90;;;;;;;22.19;49.15;101611.09;4971450;28;20486;-69
2021/09/29 12:58:28;;;;;;;3.15;0.90;;;;;;;22.19;49.16;101613.75;4972108;28;20119;-65
2021/09/29 13:00:55;;;;;;;2.13;0.75;;;;;;;22.18;49.35;101612.09;4967117;28;20026;-70
2021/09/29 13:03:20;;;;;;;2.63;0.70;;;;;;;22.16;49.41;101606.06;4969315;28;20069;-72
2021/09/29 13:05:47;;;;;;;3.10;0.70;;;;;;;22.18;49.37;101599.66;4972874;28;20070;-69
2021/09/29 13:08:14;;;;;;;4.72;0.70;;;;;;;22.22;49.28;101600.22;4971529;28;20039;-71
2021/09/29 13:10:39;;;;;;;4.50;0.80;;;;;;;22.25;49.36;101597.28;4971441;28;20564;-66
2021/09/29 13:13:05;;;;;;;1.80;0.60;;;;;;;22.26;49.12;101602.47;4973184;28;20038;-65
2021/09/29 13:15:32;;;;;;;2.35;0.77;;;;;;;22.26;49.30;101602.47;4972686;28;20027;-65
2021/09/29 13:17:58;;;;;;;2.15;0.80;;;;;;;22.24;49.30;101614.22;4973055;28;20090;-65
2021/09/29 13:20:30;;;;;;;3.08;0.70;;;;;;;22.23;49.40;101615.19;4973274;28;20030;-66
2021/09/29 13:23:33;;;;;;;2.00;0.80;;;;;;;22.24;49.27;101620.34;4988658;28;20459;-69
2021/09/29 13:36:35;;;;;;;5.85;0.73;;;;;;;22.14;49.00;101650.47;4992397;28;20020;-67